createdAt,value
2022-10-05T00:02:13.877Z,96659.59
2022-10-05T00:04:40.360Z,96656.81
2022-10-05T00:07:13.499Z,96664.41
2022-10-05T00:09:40.324Z,96658.47
2022-10-05T00:12:16.858Z,96660.28
2022-10-05T00:14:44.167Z,96646.31
2022-10-05T00:17:14.220Z,96655.00
2022-10-05T00:19:42.634Z,96659.97
2022-10-05T00:22:08.964Z,96665.22
2022-10-05T00:24:35.742Z,96668.50
2022-10-05T00:27:12.637Z,96676.25
2022-10-05T00:29:39.199Z,96668.19
2022-10-05T00:32:05.610Z,96662.91
2022-10-05T00:34:35.125Z,96663.56
2022-10-05T00:37:01.501Z,96666.88
2022-10-05T00:39:29.943Z,96671.00
2022-10-05T00:41:59.350Z,96677.06
2022-10-05T00:44:25.677Z,96663.59
2022-10-05T00:47:10.845Z,96681.41
2022-10-05T00:50:00.262Z,96671.88
2022-10-05T00:52:32.613Z,96675.47
2022-10-05T00:54:59.028Z,96675.47
2022-10-05T00:57:34.703Z,96672.66
2022-10-05T01:00:04.077Z,96676.44
2022-10-05T01:02:35.822Z,96666.75
2022-10-05T01:05:10.786Z,96667.72
2022-10-05T01:07:59.935Z,96671.19
2022-10-05T01:10:26.280Z,96674.16
2022-10-05T01:12:55.754Z,96680.06
2022-10-05T01:15:30.669Z,96678.25
2022-10-05T01:18:07.398Z,96675.09
2022-10-05T01:20:36.567Z,96679.91
2022-10-05T01:23:09.092Z,96667.56
2022-10-05T01:25:58.947Z,96673.13
2022-10-05T01:28:29.684Z,96681.72
2022-10-05T01:31:09.620Z,96678.91
2022-10-05T01:33:43.611Z,96675.28
2022-10-05T01:36:14.494Z,96682.69
2022-10-05T01:38:47.047Z,96672.00
2022-10-05T01:41:27.250Z,96682.72
2022-10-05T01:44:03.001Z,96689.00
2022-10-05T01:46:29.339Z,96695.22
2022-10-05T01:49:14.560Z,96693.41
2022-10-05T01:51:40.952Z,96698.19
2022-10-05T01:54:30.486Z,96687.66
2022-10-05T01:57:02.651Z,96695.88
2022-10-05T01:59:41.172Z,96699.53
2022-10-05T02:02:11.094Z,96697.22
2022-10-05T02:05:01.413Z,96702.31
2022-10-05T02:07:40.402Z,96689.00
2022-10-05T02:10:12.750Z,96692.28
2022-10-05T02:12:39.848Z,96700.00
2022-10-05T02:15:27.278Z,96697.56
2022-10-05T02:17:56.934Z,96686.66
2022-10-05T02:20:28.827Z,96685.00
2022-10-05T02:22:58.277Z,96679.75
2022-10-05T02:25:30.266Z,96678.59
2022-10-05T02:28:00.084Z,96687.00
2022-10-05T02:30:27.783Z,96683.41
2022-10-05T02:33:01.520Z,96682.09
2022-10-05T02:35:28.271Z,96687.34
2022-10-05T02:38:09.074Z,96698.88
2022-10-05T02:40:51.590Z,96690.31
2022-10-05T02:43:23.735Z,96692.63
2022-10-05T02:45:53.763Z,96682.09
2022-10-05T02:48:38.718Z,96669.91
2022-10-05T02:51:12.931Z,96668.78
2022-10-05T02:53:55.375Z,96676.97
2022-10-05T02:56:46.884Z,96683.41
2022-10-05T02:59:16.276Z,96673.22
2022-10-05T03:01:48.831Z,96685.72
2022-10-05T03:04:34.294Z,96681.13
2022-10-05T03:07:09.363Z,96678.66
2022-10-05T03:09:42.379Z,96679.97
2022-10-05T03:12:25.852Z,96671.41
2022-10-05T03:14:52.257Z,96673.88
2022-10-05T03:17:25.302Z,96671.88
2022-10-05T03:20:07.166Z,96675.47
2022-10-05T03:22:52.232Z,96663.31
2022-10-05T03:25:24.717Z,96667.94
2022-10-05T03:28:03.842Z,96652.97
2022-10-05T03:30:35.179Z,96651.97
2022-10-05T03:33:07.732Z,96658.06
2022-10-05T03:35:46.362Z,96661.38
2022-10-05T03:38:17.058Z,96656.44
2022-10-05T03:40:50.575Z,96665.66
2022-10-05T03:43:29.276Z,96666.91
2022-10-05T03:46:08.737Z,96670.06
2022-10-05T03:48:44.477Z,96670.84
2022-10-05T03:51:31.136Z,96667.25
2022-10-05T03:54:00.805Z,96662.63
2022-10-05T03:56:36.362Z,96652.44
2022-10-05T03:59:12.138Z,96645.84
2022-10-05T04:01:58.952Z,96645.50
2022-10-05T04:04:40.853Z,96643.25
2022-10-05T04:07:11.909Z,96654.56
2022-10-05T04:09:43.006Z,96646.50
2022-10-05T04:12:21.348Z,96651.94
2022-10-05T04:14:50.895Z,96645.38
2022-10-05T04:17:18.543Z,96643.03
2022-10-05T04:19:51.098Z,96650.78
2022-10-05T04:22:21.333Z,96647.19
2022-10-05T04:25:01.512Z,96648.81
2022-10-05T04:27:39.287Z,96651.94
2022-10-05T04:30:13.984Z,96636.81
2022-10-05T04:32:44.979Z,96643.72
2022-10-05T04:35:26.299Z,96648.19
2022-10-05T04:37:52.638Z,96654.72
2022-10-05T04:40:34.651Z,96662.97
2022-10-05T04:43:08.567Z,96660.66
2022-10-05T04:45:37.759Z,96667.38
2022-10-05T04:48:22.955Z,96676.13
2022-10-05T04:51:12.751Z,96674.31
2022-10-05T04:53:48.227Z,96676.78
2022-10-05T04:56:18.115Z,96674.47
2022-10-05T04:58:56.779Z,96687.13
2022-10-05T05:01:41.145Z,96692.34
2022-10-05T05:04:10.607Z,96695.44
2022-10-05T05:06:52.356Z,96688.69
2022-10-05T05:09:27.872Z,96692.91
2022-10-05T05:12:09.473Z,96692.25
2022-10-05T05:14:51.196Z,96707.06
2022-10-05T05:17:25.144Z,96713.78
2022-10-05T05:19:57.603Z,96707.59
2022-10-05T05:22:32.837Z,96705.63
2022-10-05T05:25:18.141Z,96698.44
2022-10-05T05:27:55.159Z,96685.94
2022-10-05T05:30:23.403Z,96683.16
2022-10-05T05:33:08.539Z,96689.88
2022-10-05T05:35:44.279Z,96693.50
2022-10-05T05:38:29.706Z,96704.31
2022-10-05T05:40:59.084Z,96712.88
2022-10-05T05:43:28.536Z,96722.38
2022-10-05T05:46:00.512Z,96717.94
2022-10-05T05:48:31.684Z,96716.78
2022-10-05T05:51:02.666Z,96712.16
2022-10-05T05:53:35.915Z,96709.00
2022-10-05T05:56:12.762Z,96711.56
2022-10-05T05:58:51.197Z,96714.69
2022-10-05T06:01:32.170Z,96716.06
2022-10-05T06:04:11.457Z,96702.31
2022-10-05T06:06:40.308Z,96707.59
2022-10-05T06:09:15.586Z,96715.28
2022-10-05T06:11:45.554Z,96718.38
2022-10-05T06:14:15.700Z,96715.78
2022-10-05T06:16:46.417Z,96724.53
2022-10-05T06:19:17.736Z,96727.16
2022-10-05T06:21:55.158Z,96723.38
2022-10-05T06:24:51.005Z,96719.47
2022-10-05T06:27:37.694Z,96728.66
2022-10-05T06:30:13.373Z,96711.41
2022-10-05T06:32:39.746Z,96720.25
2022-10-05T06:35:24.657Z,96717.16
2022-10-05T06:37:51.024Z,96710.31
2022-10-05T06:40:20.442Z,96700.59
2022-10-05T06:43:05.485Z,96705.22
2022-10-05T06:45:47.162Z,96705.91
2022-10-05T06:48:33.332Z,96689.53
2022-10-05T06:51:04.372Z,96694.78
2022-10-05T06:53:36.671Z,96688.16
2022-10-05T06:56:07.579Z,96689.28
2022-10-05T06:58:45.980Z,96677.81
2022-10-05T07:01:31.004Z,96707.16
2022-10-05T07:04:06.926Z,96708.38
2022-10-05T07:06:33.259Z,96707.59
2022-10-05T07:09:16.706Z,96706.31
2022-10-05T07:11:49.059Z,96713.91
2022-10-05T07:14:23.864Z,96713.94
2022-10-05T07:17:02.610Z,96717.88
2022-10-05T07:19:34.858Z,96720.22
2022-10-05T07:22:34.487Z,96723.66
2022-10-05T07:25:16.677Z,96717.25
2022-10-05T07:28:03.367Z,96711.66
2022-10-05T07:30:30.556Z,96714.13
2022-10-05T07:33:01.701Z,96716.97
2022-10-05T07:36:05.481Z,96721.25
2022-10-05T07:38:50.459Z,96726.66
2022-10-05T07:41:23.901Z,96722.09
2022-10-05T07:44:03.049Z,96724.72
2022-10-05T07:46:32.817Z,96717.97
2022-10-05T07:49:17.644Z,96708.72
2022-10-05T07:52:10.612Z,96704.94
2022-10-05T07:54:40.491Z,96712.34
2022-10-05T07:57:19.498Z,96718.91
2022-10-05T08:00:06.225Z,96718.59
2022-10-05T08:02:35.319Z,96720.69
2022-10-05T08:05:20.155Z,96716.25
2022-10-05T08:07:47.723Z,96722.19
2022-10-05T08:10:14.363Z,96707.00
2022-10-05T08:12:54.535Z,96702.34
2022-10-05T08:15:23.693Z,96698.81
2022-10-05T08:18:16.620Z,96700.59
2022-10-05T08:21:01.218Z,96726.91
2022-10-05T08:23:30.606Z,96717.91
2022-10-05T08:25:56.985Z,96710.91
2022-10-05T08:28:30.951Z,96716.78
2022-10-05T08:31:09.210Z,96714.06
2022-10-05T08:33:51.645Z,96699.81
2022-10-05T08:36:21.770Z,96694.75
2022-10-05T08:38:50.247Z,96695.34
2022-10-05T08:41:22.911Z,96692.94
2022-10-05T08:43:49.262Z,96698.09
2022-10-05T08:46:18.787Z,96699.09
2022-10-05T08:48:54.504Z,96698.84
2022-10-05T08:51:40.226Z,96678.22
2022-10-05T08:54:12.606Z,96670.03
2022-10-05T08:56:45.571Z,96663.47
2022-10-05T08:59:15.110Z,96681.97
2022-10-05T09:01:59.796Z,96680.50
2022-10-05T09:04:49.395Z,96665.59
2022-10-05T09:07:31.828Z,96663.84
2022-10-05T09:10:01.532Z,96665.75
2022-10-05T09:12:47.634Z,96665.25
2022-10-05T09:15:37.057Z,96677.34
2022-10-05T09:18:12.598Z,96677.41
2022-10-05T09:20:52.880Z,96680.41
2022-10-05T09:23:22.272Z,96684.56
2022-10-05T09:26:07.550Z,96693.03
2022-10-05T09:29:04.728Z,96688.81
2022-10-05T09:31:49.857Z,96683.22
2022-10-05T09:34:34.983Z,96682.53
2022-10-05T09:37:17.166Z,96672.06
2022-10-05T09:39:43.531Z,96663.97
2022-10-05T09:42:28.909Z,96665.28
2022-10-05T09:45:27.825Z,96667.00
2022-10-05T09:48:03.469Z,96668.69
2022-10-05T09:50:29.835Z,96669.13
2022-10-05T09:53:05.151Z,96670.44
2022-10-05T09:55:50.156Z,96671.28
2022-10-05T09:58:33.386Z,96671.31
2022-10-05T10:01:15.987Z,96668.75
2022-10-05T10:04:11.951Z,96675.13
2022-10-05T10:06:54.639Z,96667.78
2022-10-05T10:09:21.016Z,96659.63
2022-10-05T10:12:01.561Z,96665.38
2022-10-05T10:14:51.481Z,96663.53
2022-10-05T10:17:30.446Z,96666.19
2022-10-05T10:19:56.804Z,96676.59
2022-10-05T10:22:43.219Z,96667.41
2022-10-05T10:25:28.853Z,96665.75
2022-10-05T10:28:25.588Z,96669.66
2022-10-05T10:31:10.289Z,96671.88
2022-10-05T10:33:52.486Z,96646.28
2022-10-05T10:36:34.033Z,96634.56
2022-10-05T10:39:21.297Z,96636.41
2022-10-05T10:41:50.537Z,96640.22
2022-10-05T10:44:34.501Z,96644.50
2022-10-05T10:47:19.847Z,96639.16
2022-10-05T10:49:52.338Z,96627.06
2022-10-05T10:52:34.140Z,96622.91
2022-10-05T10:55:04.404Z,96623.31
2022-10-05T10:57:49.079Z,96615.91
2022-10-05T11:00:22.336Z,96621.66
2022-10-05T11:02:48.846Z,96632.31
2022-10-05T11:05:18.390Z,96642.53
2022-10-05T11:07:47.744Z,96651.13
2022-10-05T11:10:18.271Z,96644.59
2022-10-05T11:12:47.629Z,96636.41
2022-10-05T11:15:32.961Z,96631.09
2022-10-05T11:18:10.323Z,96636.06
2022-10-05T11:20:49.007Z,96628.28
2022-10-05T11:23:15.359Z,96631.81
2022-10-05T11:25:44.278Z,96626.31
2022-10-05T11:28:34.781Z,96620.16
2022-10-05T11:31:10.335Z,96626.69
2022-10-05T11:33:55.431Z,96618.56
2022-10-05T11:36:49.528Z,96619.59
2022-10-05T11:39:18.723Z,96616.50
2022-10-05T11:42:05.550Z,96617.31
2022-10-05T11:44:41.322Z,96624.69
2022-10-05T11:47:26.003Z,96627.41
2022-10-05T11:49:55.566Z,96641.16
2022-10-05T11:52:42.288Z,96645.06
2022-10-05T11:55:19.321Z,96650.56
2022-10-05T11:57:49.216Z,96650.59
2022-10-05T12:00:18.904Z,96652.25
2022-10-05T12:03:09.426Z,96648.38
2022-10-05T12:05:51.298Z,96665.97
2022-10-05T12:08:17.641Z,96656.97
2022-10-05T12:10:51.646Z,96652.44
2022-10-05T12:13:33.670Z,96660.44
2022-10-05T12:16:15.965Z,96660.44
2022-10-05T12:18:53.514Z,96653.06
2022-10-05T12:21:33.069Z,96664.13
2022-10-05T12:24:07.350Z,96656.75
2022-10-05T12:26:41.038Z,96660.81
2022-10-05T12:29:13.262Z,96664.13
2022-10-05T12:31:49.511Z,96658.56
2022-10-05T12:34:19.001Z,96654.66
2022-10-05T12:37:09.523Z,96654.28
2022-10-05T12:39:43.448Z,96658.31
2022-10-05T12:42:20.866Z,96655.69
2022-10-05T12:44:59.964Z,96658.56
2022-10-05T12:47:58.787Z,96660.81
2022-10-05T12:50:34.517Z,96671.88
2022-10-05T12:53:19.525Z,96661.22
2022-10-05T12:55:45.859Z,96668.53
2022-10-05T12:58:15.240Z,96656.44
2022-10-05T13:00:48.345Z,96655.41
2022-10-05T13:03:14.743Z,96659.53
2022-10-05T13:06:03.464Z,96655.88
2022-10-05T13:08:29.831Z,96649.94
2022-10-05T13:11:21.189Z,96654.84
2022-10-05T13:14:08.631Z,96651.59
2022-10-05T13:16:41.329Z,96652.00
2022-10-05T13:19:21.298Z,96659.16
2022-10-05T13:22:02.705Z,96656.28
2022-10-05T13:24:29.170Z,96652.16
2022-10-05T13:27:01.492Z,96651.75
2022-10-05T13:29:27.870Z,96646.81
2022-10-05T13:31:57.114Z,96645.38
2022-10-05T13:34:38.633Z,96644.19
2022-10-05T13:37:14.273Z,96648.50
2022-10-05T13:39:49.874Z,96657.88
2022-10-05T13:42:28.601Z,96658.09
2022-10-05T13:45:17.072Z,96651.34
2022-10-05T13:48:02.288Z,96647.66
2022-10-05T13:50:38.459Z,96651.38
2022-10-05T13:53:19.576Z,96659.34
2022-10-05T13:55:47.636Z,96653.00
2022-10-05T13:58:23.104Z,96653.84
2022-10-05T14:00:58.593Z,96641.13
2022-10-05T14:03:25.036Z,96647.94
2022-10-05T14:05:57.441Z,96651.38
2022-10-05T14:08:28.705Z,96650.16
2022-10-05T14:10:56.928Z,96656.50
2022-10-05T14:13:29.225Z,96651.38
2022-10-05T14:15:57.262Z,96653.25
2022-10-05T14:18:24.886Z,96643.38
2022-10-05T14:20:58.179Z,96638.50
2022-10-05T14:23:25.585Z,96631.38
2022-10-05T14:25:55.169Z,96630.38
2022-10-05T14:28:24.134Z,96634.25
2022-10-05T14:31:00.281Z,96641.44
2022-10-05T14:33:34.942Z,96639.19
2022-10-05T14:36:02.495Z,96640.81
2022-10-05T14:38:31.856Z,96636.69
2022-10-05T14:41:18.400Z,96637.94
2022-10-05T14:43:57.194Z,96626.06
2022-10-05T14:46:29.005Z,96631.81
2022-10-05T14:49:14.221Z,96624.84
2022-10-05T14:51:42.250Z,96636.72
2022-10-05T14:54:17.974Z,96641.22
2022-10-05T14:57:03.246Z,96638.16
2022-10-05T14:59:39.466Z,96634.47
2022-10-05T15:02:08.124Z,96640.81
2022-10-05T15:04:44.207Z,96641.22
2022-10-05T15:07:21.460Z,96645.94
2022-10-05T15:10:00.261Z,96636.75
2022-10-05T15:12:31.974Z,96634.09
2022-10-05T15:15:11.388Z,96630.19
2022-10-05T15:17:52.579Z,96625.28
2022-10-05T15:20:28.635Z,96628.97
2022-10-05T15:23:14.938Z,96616.28
2022-10-05T15:25:51.844Z,96617.50
2022-10-05T15:28:18.246Z,96624.06
2022-10-05T15:30:52.760Z,96614.06
2022-10-05T15:33:33.787Z,96607.28
2022-10-05T15:36:00.542Z,96609.94
2022-10-05T15:38:29.460Z,96605.25
2022-10-05T15:40:58.844Z,96607.28
2022-10-05T15:43:26.515Z,96611.81
2022-10-05T15:45:54.008Z,96614.25
2022-10-05T15:48:20.970Z,96617.91
2022-10-05T15:50:56.924Z,96604.22
2022-10-05T15:53:28.083Z,96600.56
2022-10-05T15:55:54.720Z,96601.34
2022-10-05T15:58:31.369Z,96602.38
2022-10-05T16:01:02.432Z,96599.94
2022-10-05T16:03:35.013Z,96613.44
2022-10-05T16:06:39.188Z,96608.50
2022-10-05T16:09:17.610Z,96602.78
2022-10-05T16:11:47.146Z,96605.44
2022-10-05T16:14:27.925Z,96601.97
2022-10-05T16:17:02.515Z,96603.19
2022-10-05T16:19:47.492Z,96604.03
2022-10-05T16:22:33.242Z,96604.44
2022-10-05T16:25:07.235Z,96602.97
2022-10-05T16:27:52.664Z,96612.00
2022-10-05T16:30:20.985Z,96611.16
2022-10-05T16:33:06.384Z,96612.19
2022-10-05T16:35:46.081Z,96615.84
2022-10-05T16:38:21.765Z,96608.31
2022-10-05T16:40:51.378Z,96613.81
2022-10-05T16:43:27.701Z,96610.94
2022-10-05T16:46:10.380Z,96612.56
2022-10-05T16:48:52.171Z,96618.50
2022-10-05T16:51:33.814Z,96613.38
2022-10-05T16:54:18.087Z,96611.09
2022-10-05T16:56:48.150Z,96620.28
2022-10-05T16:59:29.727Z,96620.88
2022-10-05T17:02:09.065Z,96618.00
2022-10-05T17:04:40.328Z,96626.38
2022-10-05T17:07:14.890Z,96620.44
2022-10-05T17:09:46.843Z,96627.97
2022-10-05T17:12:16.334Z,96618.56
2022-10-05T17:15:00.806Z,96621.59
2022-10-05T17:17:33.286Z,96612.00
2022-10-05T17:20:15.656Z,96610.16
2022-10-05T17:22:52.390Z,96609.53
2022-10-05T17:25:35.083Z,96613.19
2022-10-05T17:28:21.119Z,96615.19
2022-10-05T17:30:50.458Z,96607.41
2022-10-05T17:33:24.976Z,96614.72
2022-10-05T17:36:04.619Z,96620.63
2022-10-05T17:38:31.034Z,96622.44
2022-10-05T17:41:00.404Z,96616.91
2022-10-05T17:43:27.675Z,96611.34
2022-10-05T17:45:56.089Z,96601.53
2022-10-05T17:48:42.923Z,96610.50
2022-10-05T17:51:35.018Z,96607.81
2022-10-05T17:54:36.377Z,96602.31
2022-10-05T17:57:02.901Z,96606.19
2022-10-05T17:59:38.607Z,96612.25
2022-10-05T18:02:20.067Z,96614.47
2022-10-05T18:05:12.724Z,96608.72
2022-10-05T18:07:40.176Z,96606.69
2022-10-05T18:10:09.545Z,96605.81
2022-10-05T18:12:41.636Z,96607.81
2022-10-05T18:15:07.971Z,96616.75
2022-10-05T18:17:37.555Z,96611.81
2022-10-05T18:20:17.998Z,96609.38
2022-10-05T18:22:46.520Z,96612.66
2022-10-05T18:25:18.860Z,96611.03
2022-10-05T18:27:45.192Z,96608.78
2022-10-05T18:30:20.779Z,96615.25
2022-10-05T18:33:07.861Z,96616.44
2022-10-05T18:35:45.598Z,96611.34
2022-10-05T18:38:24.707Z,96613.56
2022-10-05T18:41:03.624Z,96613.56
2022-10-05T18:43:36.164Z,96606.34
2022-10-05T18:46:02.586Z,96614.44
2022-10-05T18:48:29.504Z,96596.00
2022-10-05T18:51:00.298Z,96590.22
2022-10-05T18:53:41.094Z,96595.50
2022-10-05T18:56:10.525Z,96606.94
2022-10-05T18:58:51.073Z,96612.44
2022-10-05T19:01:33.006Z,96602.84
2022-10-05T19:04:14.897Z,96599.19
2022-10-05T19:06:53.579Z,96602.84
2022-10-05T19:09:19.945Z,96599.56
2022-10-05T19:11:52.771Z,96597.91
2022-10-05T19:14:34.176Z,96604.88
2022-10-05T19:17:03.851Z,96600.56
2022-10-05T19:19:45.744Z,96600.75
2022-10-05T19:22:22.738Z,96611.72
2022-10-05T19:25:13.728Z,96605.41
2022-10-05T19:28:02.369Z,96602.97
2022-10-05T19:30:35.242Z,96608.66
2022-10-05T19:33:07.521Z,96609.03
2022-10-05T19:35:40.005Z,96603.09
2022-10-05T19:38:20.294Z,96604.91
2022-10-05T19:40:56.818Z,96605.09
2022-10-05T19:43:26.380Z,96606.66
2022-10-05T19:45:58.331Z,96611.09
2022-10-05T19:48:40.489Z,96604.72
2022-10-05T19:51:12.398Z,96613.41
2022-10-05T19:53:45.828Z,96612.78
2022-10-05T19:56:20.474Z,96613.25
2022-10-05T19:58:47.577Z,96616.69
2022-10-05T20:01:24.093Z,96622.16
2022-10-05T20:03:51.394Z,96610.31
2022-10-05T20:06:19.246Z,96608.28
2022-10-05T20:08:47.288Z,96613.59
2022-10-05T20:11:14.814Z,96604.22
2022-10-05T20:14:09.442Z,96613.34
2022-10-05T20:16:54.627Z,96607.59
2022-10-05T20:19:45.642Z,96611.25
2022-10-05T20:22:30.653Z,96617.56
2022-10-05T20:24:58.372Z,96609.34
2022-10-05T20:27:37.195Z,96614.00
2022-10-05T20:30:04.209Z,96620.09
2022-10-05T20:32:30.977Z,96617.28
2022-10-05T20:34:57.440Z,96618.94
2022-10-05T20:37:24.051Z,96606.69
2022-10-05T20:39:53.602Z,96614.28
2022-10-05T20:42:20.683Z,96617.91
2022-10-05T20:44:47.133Z,96612.63
2022-10-05T20:47:13.836Z,96609.19
2022-10-05T20:49:44.549Z,96618.28
2022-10-05T20:52:11.711Z,96617.28
2022-10-05T20:54:39.002Z,96620.28
2022-10-05T20:57:06.222Z,96628.59
2022-10-05T20:59:32.669Z,96627.59
2022-10-05T21:01:59.217Z,96627.44
2022-10-05T21:04:30.097Z,96627.06
2022-10-05T21:07:02.494Z,96622.56
2022-10-05T21:09:29.198Z,96625.84
2022-10-05T21:11:56.152Z,96621.56
2022-10-05T21:14:28.138Z,96624.94
2022-10-05T21:16:54.505Z,96627.78
2022-10-05T21:19:20.862Z,96630.63
2022-10-05T21:21:47.455Z,96634.28
2022-10-05T21:24:14.438Z,96633.63
2022-10-05T21:26:41.743Z,96633.00
2022-10-05T21:29:12.284Z,96639.03
2022-10-05T21:31:39.810Z,96637.84
2022-10-05T21:34:06.355Z,96643.13
2022-10-05T21:36:32.907Z,96631.56
2022-10-05T21:38:59.356Z,96634.66
2022-10-05T21:41:25.730Z,96636.09
2022-10-05T21:43:52.119Z,96648.16
2022-10-05T21:46:20.556Z,96636.53
2022-10-05T21:48:47.881Z,96646.50
2022-10-05T21:51:16.623Z,96643.56
2022-10-05T21:53:46.168Z,96644.31
2022-10-05T21:56:15.233Z,96637.75
2022-10-05T21:58:44.030Z,96637.09
2022-10-05T22:01:10.966Z,96637.28
2022-10-05T22:03:37.740Z,96642.13
2022-10-05T22:06:04.771Z,96638.84
2022-10-05T22:08:32.509Z,96645.16
2022-10-05T22:11:00.166Z,96647.34
2022-10-05T22:13:27.390Z,96639.41
2022-10-05T22:15:56.196Z,96642.03
2022-10-05T22:18:23.515Z,96644.88
2022-10-05T22:20:50.007Z,96638.75
2022-10-05T22:23:16.384Z,96641.59
2022-10-05T22:25:42.929Z,96644.41
2022-10-05T22:28:11.084Z,96640.34
2022-10-05T22:30:37.981Z,96643.97
2022-10-05T22:33:04.401Z,96646.97
2022-10-05T22:35:32.353Z,96638.78
2022-10-05T22:37:58.756Z,96645.41
2022-10-05T22:40:25.203Z,96643.78
2022-10-05T22:42:53.176Z,96641.50
2022-10-05T22:45:19.534Z,96644.50
2022-10-05T22:47:45.902Z,96651.81
2022-10-05T22:50:12.276Z,96638.47
2022-10-05T22:52:38.668Z,96636.38
2022-10-05T22:55:05.453Z,96635.72
2022-10-05T22:57:41.455Z,96648.66
2022-10-05T23:00:08.813Z,96649.41
2022-10-05T23:02:38.836Z,96647.44
2022-10-05T23:05:05.838Z,96649.41
2022-10-05T23:07:35.756Z,96657.06
2022-10-05T23:10:02.457Z,96650.16
2022-10-05T23:12:28.897Z,96661.72
2022-10-05T23:14:55.255Z,96662.06
2022-10-05T23:17:21.762Z,96659.97
2022-10-05T23:19:48.132Z,96651.38
2022-10-05T23:22:14.493Z,96653.38
2022-10-05T23:24:40.880Z,96656.19
2022-10-05T23:27:07.237Z,96654.94
2022-10-05T23:29:33.690Z,96659.38
2022-10-05T23:32:00.093Z,96664.19
2022-10-05T23:34:27.326Z,96661.56
2022-10-05T23:36:53.705Z,96658.09
2022-10-05T23:39:20.178Z,96659.94
2022-10-05T23:41:46.587Z,96658.25
2022-10-05T23:44:12.975Z,96657.28
2022-10-05T23:46:39.353Z,96662.38
2022-10-05T23:49:05.782Z,96655.25
2022-10-05T23:51:32.305Z,96656.75
2022-10-05T23:53:58.766Z,96651.00
2022-10-05T23:56:25.173Z,96651.00
2022-10-05T23:58:51.639Z,96649.97
